Time;durP1;ratioP1;P1;durP2;ratioP2;P2;SDS_P1;SDS_P2;PMS_P1;PMS_P2;Temp;Humidity;BMP_temperature;BMP_pressure;BME280_temperature;BME280_humidity;BME280_pressure;Samples;Min_cycle;Max_cycle;Signal;HPM_P1;HPM_P2
2023/06/01 00:00:14;;;;;;;;;;;20.90;91.50;;;;;;5095711;28;19918;-39
2023/06/01 00:02:40;;;;;;;;;;;20.90;91.50;;;;;;5095250;28;19904;-37
2023/06/01 00:05:05;;;;;;;;;;;20.90;91.70;;;;;;5095266;28;20003;-38
2023/06/01 00:07:32;;;;;;;;;;;20.90;91.70;;;;;;5095179;28;20405;-38
2023/06/01 00:09:58;;;;;;;;;;;20.90;91.80;;;;;;5095463;28;19908;-39
2023/06/01 00:12:24;;;;;;;;;;;20.90;91.70;;;;;;5095222;28;19904;-38
2023/06/01 00:14:49;;;;;;;;;;;20.90;91.80;;;;;;5095009;28;19904;-39
2023/06/01 00:17:15;;;;;;;;;;;20.90;91.50;;;;;;5095349;28;19904;-38
2023/06/01 00:19:44;;;;;;;;;;;20.90;91.70;;;;;;5095037;28;20316;-38
2023/06/01 00:22:10;;;;;;;;;;;20.90;91.70;;;;;;5095170;28;19905;-38
2023/06/01 00:24:36;;;;;;;;;;;20.90;91.60;;;;;;5094929;28;20412;-38
2023/06/01 00:27:02;;;;;;;;;;;20.90;91.70;;;;;;5095060;28;19908;-39
2023/06/01 00:29:27;;;;;;;;;;;20.90;91.80;;;;;;5094862;28;20266;-39
2023/06/01 00:31:53;;;;;;;;;;;20.90;91.60;;;;;;5094813;28;19908;-39
2023/06/01 00:34:18;;;;;;;;;;;20.90;91.60;;;;;;5094754;28;20011;-39
2023/06/01 00:36:44;;;;;;;;;;;20.90;91.70;;;;;;5095036;28;20349;-39
2023/06/01 00:39:10;;;;;;;;;;;20.90;91.70;;;;;;5094868;28;19958;-39
2023/06/01 00:41:35;;;;;;;;;;;20.90;91.70;;;;;;5094809;28;20308;-39
2023/06/01 00:44:01;;;;;;;;;;;20.90;91.80;;;;;;5094661;28;19927;-39
2023/06/01 00:46:26;;;;;;;;;;;20.90;91.90;;;;;;5094452;28;19962;-39
2023/06/01 00:48:52;;;;;;;;;;;20.90;91.90;;;;;;5094702;28;19970;-39
2023/06/01 00:51:17;;;;;;;;;;;20.90;91.90;;;;;;5094409;28;19927;-40
2023/06/01 00:53:43;;;;;;;;;;;20.90;92.00;;;;;;5094356;28;20417;-39
2023/06/01 00:56:11;;;;;;;;;;;20.90;91.90;;;;;;5094369;28;20362;-39
2023/06/01 00:58:37;;;;;;;;;;;20.90;92.00;;;;;;5094695;28;20029;-39
2023/06/01 01:01:03;;;;;;;;;;;20.90;92.00;;;;;;5094403;28;19908;-39
2023/06/01 01:03:31;;;;;;;;;;;20.90;92.00;;;;;;5094678;28;20357;-39
2023/06/01 01:06:04;;;;;;;;;;;20.90;91.90;;;;;;5094551;28;19904;-39
2023/06/01 01:08:36;;;;;;;;;;;20.90;91.90;;;;;;5076850;28;20251;-39
2023/06/01 01:11:05;;;;;;;;;;;20.90;91.90;;;;;;5094848;28;19904;-39
2023/06/01 01:13:33;;;;;;;;;;;20.90;91.90;;;;;;5094191;28;19904;-39
2023/06/01 01:16:07;;;;;;;;;;;20.90;91.80;;;;;;5094473;28;19904;-39
2023/06/01 01:18:33;;;;;;;;;;;20.90;91.90;;;;;;5094451;28;19908;-39
2023/06/01 01:21:00;;;;;;;;;;;20.90;91.90;;;;;;5094403;28;19927;-39
2023/06/01 01:23:36;;;;;;;;;;;20.90;91.90;;;;;;5094069;28;20240;-39
2023/06/01 01:26:13;;;;;;;;;;;20.90;92.00;;;;;;5093882;28;20250;-39
2023/06/01 01:28:52;;;;;;;;;;;20.90;92.00;;;;;;5093960;28;19908;-39
2023/06/01 01:31:20;;;;;;;;;;;20.90;92.10;;;;;;5094221;28;19904;-40
2023/06/01 01:33:46;;;;;;;;;;;20.90;92.10;;;;;;5094582;28;19919;-39
2023/06/01 01:36:12;;;;;;;;;;;20.90;92.10;;;;;;5094281;28;19954;-39
2023/06/01 01:38:38;;;;;;;;;;;20.90;92.10;;;;;;5094563;28;19916;-39
2023/06/01 01:41:03;;;;;;;;;;;20.90;92.10;;;;;;5094181;28;19954;-39
2023/06/01 01:43:29;;;;;;;;;;;20.90;92.20;;;;;;5094022;28;19923;-39
2023/06/01 01:46:02;;;;;;;;;;;20.90;92.20;;;;;;5093891;28;19946;-39
2023/06/01 01:48:31;;;;;;;;;;;20.90;92.30;;;;;;5096323;28;19914;-39
2023/06/01 01:51:00;;;;;;;;;;;20.90;92.30;;;;;;5098247;28;19904;-39
2023/06/01 01:53:26;;;;;;;;;;;20.90;92.30;;;;;;5097886;28;19954;-39
2023/06/01 01:55:55;;;;;;;;;;;20.90;92.30;;;;;;5097871;28;19945;-39
2023/06/01 01:58:20;;;;;;;;;;;20.90;92.30;;;;;;5098131;28;20397;-39
2023/06/01 02:00:46;;;;;;;;;;;20.90;92.40;;;;;;5098090;28;19904;-39
2023/06/01 02:03:15;;;;;;;;;;;20.90;92.40;;;;;;5098062;28;20379;-39
2023/06/01 02:05:41;;;;;;;;;;;20.90;92.40;;;;;;5098216;28;20354;-39
2023/06/01 02:08:06;;;;;;;;;;;20.90;92.40;;;;;;5097600;28;19908;-39
2023/06/01 02:10:32;;;;;;;;;;;20.90;92.40;;;;;;5097662;28;19908;-39
2023/06/01 02:12:57;;;;;;;;;;;20.90;92.40;;;;;;5097948;28;19908;-39
2023/06/01 02:15:22;;;;;;;;;;;20.90;92.40;;;;;;5097651;28;19908;-39
2023/06/01 02:17:48;;;;;;;;;;;20.90;92.40;;;;;;5097579;28;19910;-41
2023/06/01 02:20:14;;;;;;;;;;;20.90;92.40;;;;;;5097431;28;19904;-39
2023/06/01 02:22:39;;;;;;;;;;;20.90;92.40;;;;;;5097632;28;19904;-39
2023/06/01 02:25:05;;;;;;;;;;;20.90;92.40;;;;;;5097589;28;20342;-39
2023/06/01 02:27:31;;;;;;;;;;;20.90;92.40;;;;;;5097774;28;20003;-39
2023/06/01 02:29:56;;;;;;;;;;;20.90;92.40;;;;;;5097313;28;19908;-39
2023/06/01 02:32:22;;;;;;;;;;;20.90;92.40;;;;;;5097392;28;19911;-39
2023/06/01 02:34:47;;;;;;;;;;;20.80;92.40;;;;;;5097208;28;19954;-39
2023/06/01 02:37:13;;;;;;;;;;;20.90;92.40;;;;;;5097414;28;19919;-39
2023/06/01 02:39:38;;;;;;;;;;;20.90;92.50;;;;;;5097365;28;20258;-39
2023/06/01 02:42:04;;;;;;;;;;;20.90;92.40;;;;;;5097311;28;19911;-39
2023/06/01 02:44:29;;;;;;;;;;;20.90;92.50;;;;;;5097050;28;20294;-39
2023/06/01 02:46:55;;;;;;;;;;;20.90;92.50;;;;;;5096830;28;19908;-39
2023/06/01 02:49:20;;;;;;;;;;;20.90;92.40;;;;;;5096928;28;20320;-39
2023/06/01 02:51:45;;;;;;;;;;;20.90;92.40;;;;;;5096874;28;19904;-39
2023/06/01 02:54:11;;;;;;;;;;;20.90;92.40;;;;;;5096776;28;19937;-39
2023/06/01 02:56:36;;;;;;;;;;;20.90;92.40;;;;;;5096809;28;20325;-39
2023/06/01 02:59:02;;;;;;;;;;;20.90;92.40;;;;;;5096320;28;19904;-39
2023/06/01 03:01:28;;;;;;;;;;;20.80;92.40;;;;;;5096980;28;19904;-39
2023/06/01 03:03:54;;;;;;;;;;;20.90;92.40;;;;;;5096844;28;20346;-39
2023/06/01 03:06:23;;;;;;;;;;;20.80;92.40;;;;;;5096638;28;19908;-39
2023/06/01 03:08:49;;;;;;;;;;;20.80;92.40;;;;;;5097157;28;20254;-39
2023/06/01 03:11:15;;;;;;;;;;;20.80;92.40;;;;;;5096666;28;19904;-39
2023/06/01 03:13:40;;;;;;;;;;;20.80;92.50;;;;;;5096228;28;19911;-39
2023/06/01 03:16:06;;;;;;;;;;;20.80;92.50;;;;;;5096541;28;19905;-40
2023/06/01 03:18:31;;;;;;;;;;;20.80;92.50;;;;;;5096522;28;20349;-39
2023/06/01 03:20:57;;;;;;;;;;;20.90;92.50;;;;;;5096262;28;19957;-39
2023/06/01 03:23:22;;;;;;;;;;;20.90;92.50;;;;;;5096453;28;19904;-39
2023/06/01 03:25:47;;;;;;;;;;;20.80;92.50;;;;;;5096022;28;20002;-40
2023/06/01 03:28:13;;;;;;;;;;;20.80;92.50;;;;;;5096211;28;20247;-39
2023/06/01 03:30:38;;;;;;;;;;;20.80;92.50;;;;;;5096246;28;19943;-39
2023/06/01 03:33:04;;;;;;;;;;;20.90;92.60;;;;;;5096233;28;20242;-39
2023/06/01 03:35:29;;;;;;;;;;;20.90;92.60;;;;;;5096237;28;20394;-39
2023/06/01 03:37:55;;;;;;;;;;;20.80;92.60;;;;;;5096147;28;19911;-39
2023/06/01 03:40:20;;;;;;;;;;;20.80;92.60;;;;;;5096203;28;19953;-39
2023/06/01 03:42:47;;;;;;;;;;;20.80;92.60;;;;;;5096208;28;19904;-39
2023/06/01 03:45:13;;;;;;;;;;;20.90;92.70;;;;;;5096252;28;19923;-40
2023/06/01 03:47:38;;;;;;;;;;;20.90;92.70;;;;;;5095852;28;19912;-39
2023/06/01 03:50:06;;;;;;;;;;;20.90;92.70;;;;;;5096019;28;20389;-39
2023/06/01 03:52:31;;;;;;;;;;;20.90;92.70;;;;;;5095639;28;20265;-39
2023/06/01 03:54:58;;;;;;;;;;;20.90;92.70;;;;;;5095549;28;19987;-39
2023/06/01 03:57:23;;;;;;;;;;;20.90;92.70;;;;;;5095785;28;19954;-39
2023/06/01 03:59:49;;;;;;;;;;;20.90;92.70;;;;;;5095807;28;19904;-39
2023/06/01 04:02:14;;;;;;;;;;;20.90;92.70;;;;;;5095644;28;19916;-39
2023/06/01 04:04:45;;;;;;;;;;;20.90;92.70;;;;;;5095254;28;20232;-38
2023/06/01 04:07:14;;;;;;;;;;;20.90;92.70;;;;;;5095585;28;19908;-39
2023/06/01 04:09:40;;;;;;;;;;;20.90;92.60;;;;;;5095227;28;19954;-39
2023/06/01 04:12:06;;;;;;;;;;;20.90;92.60;;;;;;5077029;28;19943;-39
2023/06/01 04:14:31;;;;;;;;;;;20.90;92.60;;;;;;5095389;28;19904;-39
2023/06/01 04:16:57;;;;;;;;;;;21.00;92.60;;;;;;5095213;28;19939;-39
2023/06/01 04:19:22;;;;;;;;;;;21.00;92.60;;;;;;5077176;28;19915;-39
2023/06/01 04:21:49;;;;;;;;;;;20.90;92.60;;;;;;5095238;28;20330;-38
2023/06/01 04:24:15;;;;;;;;;;;21.00;92.60;;;;;;5095130;28;19908;-39
2023/06/01 04:26:40;;;;;;;;;;;21.00;92.60;;;;;;5093684;28;20015;-39
2023/06/01 04:29:06;;;;;;;;;;;20.90;92.50;;;;;;5093162;28;19916;-39
2023/06/01 04:31:32;;;;;;;;;;;21.00;92.60;;;;;;5094795;28;19908;-39
2023/06/01 04:34:01;;;;;;;;;;;21.00;92.50;;;;;;5094818;28;19961;-39
2023/06/01 04:36:29;;;;;;;;;;;21.00;92.60;;;;;;5097720;28;20275;-39
2023/06/01 04:38:54;;;;;;;;;;;21.00;92.60;;;;;;5104605;28;19977;-39
2023/06/01 04:41:21;;;;;;;;;;;21.00;92.50;;;;;;5114903;28;19908;-39
2023/06/01 04:43:52;;;;;;;;;;;21.00;92.50;;;;;;5085033;28;20002;-41
2023/06/01 04:46:26;;;;;;;;;;;21.00;92.50;;;;;;5094528;28;20015;-40
2023/06/01 04:48:52;;;;;;;;;;;21.00;92.50;;;;;;5099047;28;20385;-42
2023/06/01 04:51:20;;;;;;;;;;;21.00;92.60;;;;;;5096995;28;20097;-40
2023/06/01 04:53:49;;;;;;;;;;;21.00;92.60;;;;;;5115051;28;19908;-39
2023/06/01 04:56:27;;;;;;;;;;;21.00;92.60;;;;;;5107419;28;20320;-40
2023/06/01 04:58:53;;;;;;;;;;;21.00;92.60;;;;;;5115058;28;19915;-40
2023/06/01 05:01:18;;;;;;;;;;;21.00;92.70;;;;;;5098190;28;19919;-40
2023/06/01 05:03:45;;;;;;;;;;;21.00;92.70;;;;;;5094594;28;19919;-40
2023/06/01 05:06:11;;;;;;;;;;;21.00;91.80;;;;;;5093300;28;19912;-40
2023/06/01 05:08:37;;;;;;;;;;;21.00;90.50;;;;;;5096051;28;19916;-40
2023/06/01 05:11:03;;;;;;;;;;;20.90;89.00;;;;;;5092090;28;19912;-41
2023/06/01 05:13:28;;;;;;;;;;;20.90;89.30;;;;;;5094163;28;19908;-40
2023/06/01 05:15:54;;;;;;;;;;;21.00;90.20;;;;;;5076195;28;19934;-40
2023/06/01 05:18:19;;;;;;;;;;;21.00;90.70;;;;;;5094151;28;19908;-40
2023/06/01 05:20:45;;;;;;;;;;;21.00;91.00;;;;;;5097426;28;20010;-40
2023/06/01 05:23:11;;;;;;;;;;;21.00;91.20;;;;;;5114526;28;19914;-39
2023/06/01 05:25:36;;;;;;;;;;;21.00;91.30;;;;;;5114207;28;19931;-38
2023/06/01 05:28:02;;;;;;;;;;;21.00;91.40;;;;;;5114269;28;20006;-39
2023/06/01 05:30:27;;;;;;;;;;;21.00;91.50;;;;;;5114429;28;19915;-39
2023/06/01 05:32:52;;;;;;;;;;;21.00;91.50;;;;;;5114617;28;19915;-39
2023/06/01 05:35:18;;;;;;;;;;;21.00;91.60;;;;;;5114298;28;19914;-38
2023/06/01 05:37:43;;;;;;;;;;;21.00;91.60;;;;;;5113949;28;19907;-39
2023/06/01 05:40:09;;;;;;;;;;;21.00;91.60;;;;;;5114692;28;19908;-38
2023/06/01 05:42:35;;;;;;;;;;;21.00;91.70;;;;;;5114200;28;19914;-39
2023/06/01 05:45:01;;;;;;;;;;;21.00;91.70;;;;;;5114046;28;19920;-39
2023/06/01 05:47:26;;;;;;;;;;;21.00;91.70;;;;;;5114305;28;19912;-39
2023/06/01 05:49:51;;;;;;;;;;;21.00;91.70;;;;;;5114317;28;20006;-38
2023/06/01 05:52:17;;;;;;;;;;;21.00;91.70;;;;;;5114221;28;20376;-39
2023/06/01 05:54:42;;;;;;;;;;;21.00;91.80;;;;;;5114430;28;19934;-39
2023/06/01 05:57:08;;;;;;;;;;;21.00;91.80;;;;;;5113824;28;19908;-39
2023/06/01 05:59:33;;;;;;;;;;;21.00;91.80;;;;;;5113919;28;20442;-40
2023/06/01 06:01:59;;;;;;;;;;;21.00;91.80;;;;;;5114487;28;20011;-39
2023/06/01 06:04:25;;;;;;;;;;;21.00;91.80;;;;;;5114100;28;20200;-39
2023/06/01 06:06:50;;;;;;;;;;;21.00;91.80;;;;;;5113946;28;19911;-39
2023/06/01 06:09:16;;;;;;;;;;;21.00;92.10;;;;;;5113952;28;20347;-39
2023/06/01 06:11:41;;;;;;;;;;;21.00;91.80;;;;;;5114035;28;19953;-39
2023/06/01 06:14:07;;;;;;;;;;;21.00;91.90;;;;;;5114331;28;20342;-39
2023/06/01 06:16:33;;;;;;;;;;;21.00;91.80;;;;;;5113977;28;20286;-39
2023/06/01 06:18:58;;;;;;;;;;;21.00;91.80;;;;;;5114027;28;19912;-39
2023/06/01 06:21:23;;;;;;;;;;;21.00;91.80;;;;;;5114010;28;19912;-40
2023/06/01 06:23:49;;;;;;;;;;;21.00;91.90;;;;;;5095663;28;19922;-39
2023/06/01 06:26:14;;;;;;;;;;;21.00;91.90;;;;;;5113477;28;19907;-39
2023/06/01 06:28:40;;;;;;;;;;;21.00;91.90;;;;;;5113587;28;19912;-39
2023/06/01 06:31:05;;;;;;;;;;;21.00;91.90;;;;;;5113679;28;19914;-40
2023/06/01 06:33:31;;;;;;;;;;;21.00;91.90;;;;;;5114670;28;19907;-39
2023/06/01 06:35:56;;;;;;;;;;;21.00;91.90;;;;;;5117287;28;20282;-39
2023/06/01 06:38:22;;;;;;;;;;;21.00;91.90;;;;;;5099286;28;19960;-40
2023/06/01 06:40:47;;;;;;;;;;;21.00;91.90;;;;;;5117528;28;20377;-39
2023/06/01 06:43:16;;;;;;;;;;;21.00;91.90;;;;;;5117034;28;19912;-39
2023/06/01 06:45:41;;;;;;;;;;;21.00;91.90;;;;;;5117096;28;19908;-39
2023/06/01 06:48:07;;;;;;;;;;;21.00;91.90;;;;;;5116976;28;19919;-39
2023/06/01 06:50:32;;;;;;;;;;;21.00;91.90;;;;;;5117681;28;19951;-39
2023/06/01 06:52:59;;;;;;;;;;;21.00;91.90;;;;;;5098471;28;20014;-39
2023/06/01 06:55:24;;;;;;;;;;;21.00;91.90;;;;;;5117168;28;19915;-40
2023/06/01 06:57:50;;;;;;;;;;;21.00;91.90;;;;;;5116846;28;20275;-39
2023/06/01 07:00:16;;;;;;;;;;;21.00;91.80;;;;;;5116689;28;19908;-39
2023/06/01 07:02:44;;;;;;;;;;;21.00;91.80;;;;;;5116744;28;19908;-39
2023/06/01 07:05:10;;;;;;;;;;;21.00;91.90;;;;;;5116961;28;19915;-40
2023/06/01 07:07:36;;;;;;;;;;;21.00;91.90;;;;;;5116820;28;19912;-39
2023/06/01 07:10:01;;;;;;;;;;;21.00;91.90;;;;;;5116866;28;19919;-39
2023/06/01 07:12:27;;;;;;;;;;;21.00;91.90;;;;;;5116835;28;19908;-40
2023/06/01 07:14:52;;;;;;;;;;;21.00;91.90;;;;;;5098239;28;20346;-39
2023/06/01 07:17:18;;;;;;;;;;;21.00;91.80;;;;;;5098359;28;19907;-39
2023/06/01 07:19:43;;;;;;;;;;;21.00;91.80;;;;;;5116359;28;19948;-40
2023/06/01 07:22:09;;;;;;;;;;;21.00;91.80;;;;;;5098391;28;19908;-39
2023/06/01 07:24:35;;;;;;;;;;;21.00;91.90;;;;;;5116653;28;20362;-39
2023/06/01 07:27:00;;;;;;;;;;;21.00;91.90;;;;;;5116408;28;20010;-40
2023/06/01 07:29:26;;;;;;;;;;;21.00;91.80;;;;;;5098400;28;19970;-40
2023/06/01 07:31:52;;;;;;;;;;;21.00;91.80;;;;;;5116322;28;19915;-39
2023/06/01 07:34:18;;;;;;;;;;;21.00;91.80;;;;;;5116172;28;19957;-39
2023/06/01 07:36:45;;;;;;;;;;;21.00;91.80;;;;;;5116457;28;19912;-39
2023/06/01 07:39:11;;;;;;;;;;;21.00;91.80;;;;;;5116338;28;20362;-40
2023/06/01 07:41:36;;;;;;;;;;;21.00;92.00;;;;;;5116475;28;19929;-39
2023/06/01 07:44:02;;;;;;;;;;;21.00;91.70;;;;;;5115888;28;19920;-39
2023/06/01 07:46:28;;;;;;;;;;;21.00;91.80;;;;;;5114984;28;20292;-40
2023/06/01 07:48:53;;;;;;;;;;;21.00;91.70;;;;;;5115945;28;19915;-40
2023/06/01 07:51:19;;;;;;;;;;;21.00;91.70;;;;;;5115824;28;19915;-39
2023/06/01 07:53:44;;;;;;;;;;;21.00;91.80;;;;;;5116072;28;20369;-39
2023/06/01 07:56:10;;;;;;;;;;;21.00;91.80;;;;;;5116067;28;19915;-39
2023/06/01 07:58:36;;;;;;;;;;;21.00;91.80;;;;;;5115632;28;19908;-39
2023/06/01 08:01:02;;;;;;;;;;;21.00;91.80;;;;;;5116034;28;20282;-40
2023/06/01 08:03:28;;;;;;;;;;;21.00;91.80;;;;;;5115551;28;19915;-39
2023/06/01 08:05:59;;;;;;;;;;;21.00;91.60;;;;;;5115790;28;19995;-39
2023/06/01 08:08:24;;;;;;;;;;;21.00;91.60;;;;;;5115889;28;20008;-40
2023/06/01 08:10:51;;;;;;;;;;;21.00;91.50;;;;;;5115736;28;20021;-39
2023/06/01 08:13:18;;;;;;;;;;;21.00;91.60;;;;;;5115755;28;20270;-39
2023/06/01 08:15:47;;;;;;;;;;;21.00;91.60;;;;;;5115597;28;20014;-40
2023/06/01 08:18:15;;;;;;;;;;;21.00;91.40;;;;;;5115554;28;19939;-39
2023/06/01 08:20:41;;;;;;;;;;;21.00;91.40;;;;;;5115575;28;19908;-39
2023/06/01 08:23:07;;;;;;;;;;;21.00;91.40;;;;;;5115294;28;19908;-39
2023/06/01 08:25:33;;;;;;;;;;;21.00;91.50;;;;;;5115234;28;19908;-40
2023/06/01 08:27:58;;;;;;;;;;;21.00;91.60;;;;;;5115084;28;19968;-39
2023/06/01 08:30:26;;;;;;;;;;;21.00;91.70;;;;;;5115451;28;20270;-39
2023/06/01 08:32:52;;;;;;;;;;;21.00;91.70;;;;;;5115460;28;19914;-39
2023/06/01 08:35:19;;;;;;;;;;;21.00;91.70;;;;;;5096977;28;19907;-39
2023/06/01 08:37:46;;;;;;;;;;;21.00;91.70;;;;;;5114755;28;20468;-39
2023/06/01 08:40:12;;;;;;;;;;;21.00;91.70;;;;;;5115170;28;19907;-39
2023/06/01 08:42:37;;;;;;;;;;;21.00;91.70;;;;;;5115036;28;19915;-39
2023/06/01 08:45:06;;;;;;;;;;;21.00;91.80;;;;;;5115098;28;19959;-40
2023/06/01 08:47:32;;;;;;;;;;;21.00;91.70;;;;;;5114913;28;20309;-40
2023/06/01 08:50:01;;;;;;;;;;;21.00;91.50;;;;;;5115055;28;19918;-41
2023/06/01 08:52:28;;;;;;;;;;;21.00;91.30;;;;;;5114809;28;20306;-42
2023/06/01 08:54:54;;;;;;;;;;;21.00;91.40;;;;;;5114903;28;20240;-39
2023/06/01 08:57:20;;;;;;;;;;;21.00;91.40;;;;;;5114503;28;19914;-39
2023/06/01 08:59:46;;;;;;;;;;;21.00;91.50;;;;;;5114665;28;19908;-39
2023/06/01 09:02:11;;;;;;;;;;;21.00;91.40;;;;;;5114644;28;19907;-38
2023/06/01 09:04:41;;;;;;;;;;;21.00;91.40;;;;;;5096514;28;19915;-38
2023/06/01 09:07:07;;;;;;;;;;;21.00;91.30;;;;;;5114386;28;19911;-38
2023/06/01 09:09:33;;;;;;;;;;;21.00;91.30;;;;;;5114660;28;20282;-38
2023/06/01 09:12:18;;;;;;;;;;;21.00;91.30;;;;;;5115165;28;19908;-40
2023/06/01 09:14:44;;;;;;;;;;;21.00;91.30;;;;;;5114595;28;19911;-40
2023/06/01 09:17:13;;;;;;;;;;;21.00;91.30;;;;;;5114618;28;19914;-39
2023/06/01 09:19:45;;;;;;;;;;;21.00;91.20;;;;;;5114567;28;19915;-39
2023/06/01 09:22:11;;;;;;;;;;;21.00;91.20;;;;;;5114687;28;20417;-39
2023/06/01 09:24:37;;;;;;;;;;;21.00;91.20;;;;;;5114493;28;19907;-40
2023/06/01 09:27:03;;;;;;;;;;;21.00;91.20;;;;;;5114433;28;19912;-40
2023/06/01 09:29:29;;;;;;;;;;;21.00;91.20;;;;;;5114222;28;19912;-39
2023/06/01 09:31:55;;;;;;;;;;;21.00;91.20;;;;;;5114118;28;19908;-40
2023/06/01 09:34:21;;;;;;;;;;;21.00;91.30;;;;;;5113999;28;19919;-40
2023/06/01 09:36:47;;;;;;;;;;;21.00;91.40;;;;;;5114327;28;19908;-39
2023/06/01 09:39:16;;;;;;;;;;;21.00;91.40;;;;;;5114117;28;19908;-39
2023/06/01 09:41:47;;;;;;;;;;;21.00;91.40;;;;;;5114291;28;19908;-40
2023/06/01 09:44:13;;;;;;;;;;;21.00;91.50;;;;;;5114078;28;19920;-39
2023/06/01 09:46:48;;;;;;;;;;;21.00;91.50;;;;;;5114281;28;19912;-40
2023/06/01 09:49:33;;;;;;;;;;;21.00;91.40;;;;;;5114334;28;19968;-39
2023/06/01 09:52:05;;;;;;;;;;;21.00;91.30;;;;;;5114223;28;19907;-39
2023/06/01 09:54:34;;;;;;;;;;;21.00;91.30;;;;;;5114064;28;19953;-40
2023/06/01 09:57:01;;;;;;;;;;;21.00;91.30;;;;;;5114152;28;20278;-40
2023/06/01 09:59:28;;;;;;;;;;;21.00;91.30;;;;;;5095904;28;20068;-39
2023/06/01 10:01:54;;;;;;;;;;;21.00;91.30;;;;;;5113878;28;19912;-39
2023/06/01 10:04:22;;;;;;;;;;;21.00;91.30;;;;;;5113622;28;19915;-39
2023/06/01 10:06:48;;;;;;;;;;;21.00;91.30;;;;;;5113768;28;19925;-40
2023/06/01 10:09:15;;;;;;;;;;;21.00;91.30;;;;;;5115754;28;19941;-40
2023/06/01 10:11:41;;;;;;;;;;;21.00;91.30;;;;;;5118142;28;20014;-39
2023/06/01 10:14:07;;;;;;;;;;;21.00;91.30;;;;;;5118085;28;19962;-40
2023/06/01 10:16:34;;;;;;;;;;;21.00;91.40;;;;;;5117645;28;19915;-39
2023/06/01 10:19:00;;;;;;;;;;;21.00;91.40;;;;;;5118330;28;20296;-40
2023/06/01 10:21:26;;;;;;;;;;;21.00;91.40;;;;;;5117628;28;19915;-39
2023/06/01 10:23:52;;;;;;;;;;;21.00;91.40;;;;;;5117641;28;19907;-39
2023/06/01 10:26:18;;;;;;;;;;;21.00;91.40;;;;;;5117401;28;20278;-39
2023/06/01 10:28:45;;;;;;;;;;;21.00;91.30;;;;;;5117820;28;19916;-39
2023/06/01 10:31:29;;;;;;;;;;;21.00;91.40;;;;;;5117649;28;20002;-39
2023/06/01 10:33:55;;;;;;;;;;;21.00;91.40;;;;;;5117290;28;19912;-39
2023/06/01 10:36:21;;;;;;;;;;;21.00;91.40;;;;;;5117458;28;19935;-39
2023/06/01 10:38:46;;;;;;;;;;;21.00;91.40;;;;;;5117121;28;20308;-39
2023/06/01 10:41:31;;;;;;;;;;;21.00;91.30;;;;;;5117160;28;19907;-39
2023/06/01 10:43:56;;;;;;;;;;;21.00;91.30;;;;;;5117119;28;20006;-38
2023/06/01 10:46:40;;;;;;;;;;;21.00;91.30;;;;;;5098807;28;20382;-39
2023/06/01 10:49:06;;;;;;;;;;;21.00;91.30;;;;;;5116909;28;19912;-39
2023/06/01 10:51:31;;;;;;;;;;;21.00;91.30;;;;;;5117351;28;20239;-39
2023/06/01 10:54:15;;;;;;;;;;;21.00;91.30;;;;;;5116974;28;19908;-38
2023/06/01 10:56:41;;;;;;;;;;;21.00;91.30;;;;;;5116337;28;19973;-38
2023/06/01 10:59:07;;;;;;;;;;;21.00;91.30;;;;;;5116676;28;19950;-38
2023/06/01 11:01:36;;;;;;;;;;;21.00;91.30;;;;;;5098757;28;19908;-39
2023/06/01 11:04:02;;;;;;;;;;;21.00;91.30;;;;;;5117091;28;19991;-38
2023/06/01 11:06:39;;;;;;;;;;;21.00;91.30;;;;;;5116500;28;19962;-39
2023/06/01 11:09:05;;;;;;;;;;;21.00;91.30;;;;;;5116710;28;19912;-38
2023/06/01 11:11:52;;;;;;;;;;;21.00;91.30;;;;;;5117144;28;20386;-39
2023/06/01 11:14:19;;;;;;;;;;;21.00;91.30;;;;;;5116523;28;20343;-39
2023/06/01 11:16:45;;;;;;;;;;;21.00;91.20;;;;;;5116749;28;20366;-39
2023/06/01 11:19:16;;;;;;;;;;;21.00;91.20;;;;;;5116516;28;19915;-39
2023/06/01 11:21:46;;;;;;;;;;;21.00;91.20;;;;;;5116935;28;19952;-39
2023/06/01 11:24:13;;;;;;;;;;;21.00;91.20;;;;;;5098172;28;19934;-39
2023/06/01 11:26:41;;;;;;;;;;;21.10;91.20;;;;;;5098031;28;20285;-39
2023/06/01 11:29:11;;;;;;;;;;;21.00;91.20;;;;;;5116331;28;20282;-39
2023/06/01 11:31:53;;;;;;;;;;;21.00;91.20;;;;;;5116500;28;20006;-39
2023/06/01 11:34:18;;;;;;;;;;;21.10;91.20;;;;;;5116199;28;19915;-39
2023/06/01 11:36:47;;;;;;;;;;;21.10;91.20;;;;;;5116220;28;19916;-39
2023/06/01 11:39:20;;;;;;;;;;;21.00;91.20;;;;;;5116050;28;20017;-39
2023/06/01 11:41:46;;;;;;;;;;;21.10;91.20;;;;;;5116076;28;19944;-39
2023/06/01 11:44:12;;;;;;;;;;;21.10;91.20;;;;;;5116179;28;19920;-39
2023/06/01 11:46:48;;;;;;;;;;;21.00;91.20;;;;;;5115921;28;19918;-39
2023/06/01 11:49:14;;;;;;;;;;;21.10;91.20;;;;;;5115877;28;19916;-39
2023/06/01 11:51:42;;;;;;;;;;;21.10;91.20;;;;;;5115993;28;19908;-38
2023/06/01 11:54:08;;;;;;;;;;;21.10;91.20;;;;;;5115991;28;19908;-39
2023/06/01 11:56:35;;;;;;;;;;;21.00;91.20;;;;;;5115734;28;19912;-39
2023/06/01 11:59:04;;;;;;;;;;;21.10;91.30;;;;;;5115954;28;19907;-39
2023/06/01 12:01:29;;;;;;;;;;;21.10;91.20;;;;;;5115856;28;20332;-39
2023/06/01 12:03:58;;;;;;;;;;;21.10;91.20;;;;;;5097476;28;19908;-39
2023/06/01 12:06:27;;;;;;;;;;;21.10;91.30;;;;;;5115808;28;19919;-39
2023/06/01 12:08:54;;;;;;;;;;;21.10;91.50;;;;;;5115620;28;19912;-39
2023/06/01 12:11:22;;;;;;;;;;;21.10;91.30;;;;;;5115773;28;19912;-39
2023/06/01 12:13:49;;;;;;;;;;;21.10;91.30;;;;;;5115786;28;19908;-39
2023/06/01 12:16:16;;;;;;;;;;;21.10;91.30;;;;;;5116050;28;20339;-39
2023/06/01 12:18:41;;;;;;;;;;;21.10;91.30;;;;;;5115340;28;19908;-39
2023/06/01 12:21:13;;;;;;;;;;;21.10;91.30;;;;;;5115455;28;19914;-39
2023/06/01 12:23:39;;;;;;;;;;;21.10;91.30;;;;;;5115164;28;19908;-39
2023/06/01 12:26:07;;;;;;;;;;;21.10;91.30;;;;;;5115039;28;19908;-39
2023/06/01 12:28:50;;;;;;;;;;;21.10;91.30;;;;;;5115209;28;19912;-39
2023/06/01 12:31:15;;;;;;;;;;;21.10;91.30;;;;;;5114474;28;19912;-39
2023/06/01 12:33:42;;;;;;;;;;;21.10;91.40;;;;;;5115294;28;19976;-38
2023/06/01 12:36:08;;;;;;;;;;;21.10;91.40;;;;;;5114891;28;20359;-40
2023/06/01 12:38:35;;;;;;;;;;;21.10;91.50;;;;;;5114953;28;19911;-39
2023/06/01 12:41:11;;;;;;;;;;;21.10;91.40;;;;;;5114626;28;19908;-39
2023/06/01 12:43:44;;;;;;;;;;;21.10;91.40;;;;;;5115255;28;19923;-40
2023/06/01 12:46:18;;;;;;;;;;;21.10;91.40;;;;;;5114978;28;19915;-40
2023/06/01 12:48:44;;;;;;;;;;;21.10;91.40;;;;;;5114681;28;20325;-39
2023/06/01 12:51:10;;;;;;;;;;;21.10;91.40;;;;;;5114684;28;20373;-38
2023/06/01 12:53:36;;;;;;;;;;;21.10;91.70;;;;;;5114954;28;19968;-39
2023/06/01 12:56:02;;;;;;;;;;;21.10;91.50;;;;;;5096474;28;20411;-38
2023/06/01 12:58:30;;;;;;;;;;;21.10;91.40;;;;;;5114890;28;19957;-38
2023/06/01 13:00:56;;;;;;;;;;;21.10;91.40;;;;;;5115064;28;19908;-39
2023/06/01 13:03:22;;;;;;;;;;;21.10;91.40;;;;;;5114570;28;20181;-39
2023/06/01 13:05:49;;;;;;;;;;;21.10;91.40;;;;;;5114658;28;20279;-39
2023/06/01 13:08:15;;;;;;;;;;;21.10;91.50;;;;;;5114732;28;19911;-39
2023/06/01 13:10:41;;;;;;;;;;;21.10;91.50;;;;;;5114373;28;19965;-39
2023/06/01 13:13:07;;;;;;;;;;;21.10;91.50;;;;;;5114686;28;19912;-38
2023/06/01 13:15:33;;;;;;;;;;;21.10;91.50;;;;;;5114554;28;19907;-39
2023/06/01 13:17:59;;;;;;;;;;;21.10;91.50;;;;;;5114549;28;20006;-39
2023/06/01 13:20:24;;;;;;;;;;;21.10;91.50;;;;;;5114271;28;19943;-39
2023/06/01 13:22:50;;;;;;;;;;;21.10;91.50;;;;;;5114257;28;19933;-39
2023/06/01 13:25:15;;;;;;;;;;;21.10;91.50;;;;;;5114618;28;19908;-39
2023/06/01 13:27:41;;;;;;;;;;;21.10;91.50;;;;;;5114044;28;19912;-39
2023/06/01 13:30:07;;;;;;;;;;;21.10;91.50;;;;;;5114265;28;19912;-40
2023/06/01 13:32:33;;;;;;;;;;;21.10;91.50;;;;;;5114482;28;19907;-41
2023/06/01 13:34:58;;;;;;;;;;;21.10;91.50;;;;;;5114294;28;19908;-39
2023/06/01 13:37:24;;;;;;;;;;;21.10;91.50;;;;;;5114121;28;19934;-39
2023/06/01 13:39:49;;;;;;;;;;;21.10;91.50;;;;;;5114400;28;19908;-40
2023/06/01 13:42:18;;;;;;;;;;;21.10;91.50;;;;;;5113978;28;19998;-40
2023/06/01 13:44:45;;;;;;;;;;;21.10;91.50;;;;;;5116783;28;19981;-40
2023/06/01 13:47:16;;;;;;;;;;;21.10;91.60;;;;;;5118031;28;20353;-40
2023/06/01 13:49:45;;;;;;;;;;;21.20;91.60;;;;;;5118512;28;20014;-40
2023/06/01 13:52:11;;;;;;;;;;;21.10;91.50;;;;;;5118177;28;20323;-40
2023/06/01 13:54:36;;;;;;;;;;;21.10;91.50;;;;;;5117875;28;19908;-40
2023/06/01 13:57:05;;;;;;;;;;;21.10;91.60;;;;;;5118105;28;19957;-40
2023/06/01 13:59:31;;;;;;;;;;;21.10;91.60;;;;;;5118424;28;19915;-40
2023/06/01 14:01:57;;;;;;;;;;;21.20;91.60;;;;;;5118383;28;19908;-40
2023/06/01 14:04:22;;;;;;;;;;;21.10;91.50;;;;;;5117907;28;19931;-40
2023/06/01 14:06:50;;;;;;;;;;;21.20;91.60;;;;;;5099539;28;19934;-40
2023/06/01 14:09:16;;;;;;;;;;;21.20;91.60;;;;;;5118075;28;19912;-40
2023/06/01 14:11:41;;;;;;;;;;;21.20;91.60;;;;;;5118064;28;19916;-40
2023/06/01 14:14:07;;;;;;;;;;;21.10;91.60;;;;;;5099733;28;20365;-40